Time;durP1;ratioP1;P1;durP2;ratioP2;P2;SDS_P1;SDS_P2;PMS_P1;PMS_P2;Temp;Humidity;BMP_temperature;BMP_pressure;BME280_temperature;BME280_humidity;BME280_pressure;Samples;Min_cycle;Max_cycle;Signal;HPM_P1;HPM_P2
2022/08/02 00:00:34;;;;;;;4.78;4.00;;;;;;;19.45;100.00;100365.38;2872546;80;21074;-91
2022/08/02 00:04:37;;;;;;;5.17;4.70;;;;;;;19.61;100.00;100364.38;2880821;80;21079;-90
2022/08/02 00:08:38;;;;;;;4.65;4.20;;;;;;;19.54;100.00;100367.81;2914131;80;21012;-91
2022/08/02 00:12:40;;;;;;;3.92;3.62;;;;;;;19.49;100.00;100370.72;2836519;80;21018;-92
2022/08/02 00:16:41;;;;;;;4.80;4.40;;;;;;;19.41;100.00;100369.79;2894890;80;21066;-92
2022/08/02 00:20:42;;;;;;;21.42;3.77;;;;;;;19.48;100.00;100369.91;2896481;80;21039;-90
2022/08/02 00:24:44;;;;;;;5.28;4.62;;;;;;;19.57;100.00;100372.52;2841107;81;21649;-87
2022/08/02 00:28:45;;;;;;;3.65;3.35;;;;;;;19.62;100.00;100370.09;2810245;81;21047;-91
2022/08/02 00:32:46;;;;;;;3.80;3.50;;;;;;;19.64;100.00;100366.20;2861968;82;21028;-90
2022/08/02 00:36:48;;;;;;;5.87;3.72;;;;;;;19.56;100.00;100373.04;2883364;80;21081;-91
2022/08/02 00:40:51;;;;;;;4.87;4.45;;;;;;;19.60;100.00;100378.89;2803059;83;21081;-90
2022/08/02 00:44:52;;;;;;;5.05;3.65;;;;;;;19.41;100.00;100371.64;2859830;80;21086;-90
2022/08/02 00:48:54;;;;;;;3.98;3.58;;;;;;;19.19;100.00;100370.13;2881646;81;21024;-89
2022/08/02 00:52:57;;;;;;;4.45;4.05;;;;;;;19.16;100.00;100370.98;2812251;82;21098;-91
2022/08/02 00:56:59;;;;;;;6.65;4.22;;;;;;;19.11;100.00;100366.16;2816921;81;21123;-90
2022/08/02 01:01:02;;;;;;;4.85;4.42;;;;;;;19.04;100.00;100366.53;2781477;83;21114;-90
2022/08/02 01:05:04;;;;;;;3.75;3.45;;;;;;;19.10;100.00;100367.19;2767675;84;21558;-91
2022/08/02 01:09:06;;;;;;;5.83;4.70;;;;;;;19.19;100.00;100374.17;2775491;84;21792;-92
2022/08/02 01:13:07;;;;;;;8.40;4.67;;;;;;;19.23;100.00;100371.44;2778890;82;21051;-92
2022/08/02 01:17:23;;;;;;;3.85;3.45;;;;;;;19.29;100.00;100371.23;2815778;82;21661;-91
2022/08/02 01:21:34;;;;;;;;;;;;;;;19.23;100.00;100370.09;2805343;82;21647;-91
2022/08/02 01:26:08;;;;;;;5.28;3.67;;;;;;;19.04;100.00;100367.88;2820896;82;20161;-90
2022/08/02 01:30:11;;;;;;;4.47;3.98;;;;;;;18.61;100.00;100373.70;2871726;80;21400;-91
2022/08/02 01:34:40;;;;;;;6.33;5.08;;;;;;;18.45;100.00;100372.76;2844734;81;21012;-91
2022/08/02 01:38:47;;;;;;;5.20;4.17;;;;;;;18.38;100.00;100371.27;2898515;80;21065;-89
2022/08/02 01:42:53;;;;;;;5.08;4.17;;;;;;;18.36;100.00;100379.17;2867357;80;21003;-91
2022/08/02 01:47:00;;;;;;;4.25;3.83;;;;;;;18.35;100.00;100379.70;2848426;81;21059;-93
2022/08/02 01:51:03;;;;;;;4.97;4.50;;;;;;;18.33;100.00;100375.00;2892248;80;21035;-90
2022/08/02 01:55:10;;;;;;;4.10;3.80;;;;;;;18.28;100.00;100380.08;2879332;80;21402;-91
2022/08/02 01:59:16;;;;;;;4.47;3.98;;;;;;;18.33;100.00;100375.00;2895999;80;21114;-90
2022/08/02 02:03:24;;;;;;;4.80;4.03;;;;;;;18.34;100.00;100376.67;2896953;80;21142;-91
2022/08/02 02:07:28;;;;;;;3.95;3.65;;;;;;;18.45;100.00;100375.45;2892768;80;21049;-92
2022/08/02 02:11:33;;;;;;;4.92;4.40;;;;;;;18.35;100.00;100378.84;2879274;79;21010;-92
2022/08/02 02:15:39;;;;;;;4.60;4.17;;;;;;;18.32;100.00;100376.02;2816782;81;21176;-91
2022/08/02 02:19:43;;;;;;;5.22;4.78;;;;;;;18.28;100.00;100374.69;2879011;81;21035;-92
2022/08/02 02:23:44;;;;;;;5.50;4.95;;;;;;;18.32;100.00;100381.40;2852839;82;21121;-92
2022/08/02 02:27:57;;;;;;;6.62;5.83;;;;;;;18.37;100.00;100394.31;2816790;83;21024;-90
2022/08/02 02:32:00;;;;;;;6.72;5.00;;;;;;;18.32;100.00;100392.17;2884229;79;21051;-90
2022/08/02 02:36:03;;;;;;;5.97;4.10;;;;;;;18.06;100.00;100380.31;2889225;80;21055;-92
2022/08/02 02:40:07;;;;;;;5.50;4.83;;;;;;;17.94;100.00;100386.53;2803383;81;21036;-87
2022/08/02 02:44:12;;;;;;;5.83;3.87;;;;;;;17.81;100.00;100395.14;2871116;79;21071;-90
2022/08/02 02:48:14;;;;;;;5.20;4.65;;;;;;;17.73;100.00;100389.76;2875012;80;21072;-89
2022/08/02 02:52:17;;;;;;;4.60;4.17;;;;;;;17.80;100.00;100394.29;2854643;81;21042;-89
2022/08/02 02:56:20;;;;;;;4.95;4.42;;;;;;;17.85;100.00;100401.33;2853584;81;21035;-89
2022/08/02 03:01:26;;;;;;;4.55;4.15;;;;;;;17.97;100.00;100397.77;2889655;81;21037;-91
2022/08/02 03:04:28;;;;;;;5.60;4.05;;;;;;;18.09;100.00;100398.31;2894677;80;21011;-89
2022/08/02 03:08:29;;;;;;;6.23;3.93;;;;;;;18.19;100.00;100402.15;2895961;80;21042;-92
2022/08/02 03:12:32;;;;;;;4.55;4.15;;;;;;;18.28;100.00;100415.08;2891530;80;21026;-92
2022/08/02 03:16:42;;;;;;;5.80;5.28;;;;;;;18.33;100.00;100405.97;2858715;81;21096;-90
2022/08/02 03:20:44;;;;;;;6.10;5.40;;;;;;;18.34;100.00;100401.41;2786628;83;20980;-90
2022/08/02 03:24:45;;;;;;;10.38;9.38;;;;;;;18.09;100.00;100399.66;2767447;83;21094;-91
2022/08/02 03:28:47;;;;;;;13.18;11.43;;;;;;;17.90;100.00;100408.08;2786680;83;21044;-87
2022/08/02 03:32:49;;;;;;;13.78;11.43;;;;;;;17.77;100.00;100401.85;2832512;81;20995;-91
2022/08/02 03:36:54;;;;;;;14.98;13.48;;;;;;;17.76;100.00;100404.20;2855179;82;21062;-90
2022/08/02 03:40:56;;;;;;;11.77;10.57;;;;;;;17.76;100.00;100413.63;2841502;82;21091;-92
2022/08/02 03:44:59;;;;;;;15.40;9.25;;;;;;;17.70;100.00;100413.82;2838582;81;22308;-91
2022/08/02 03:49:01;;;;;;;8.83;7.78;;;;;;;17.51;100.00;100419.87;2879894;80;21248;-93
2022/08/02 03:53:03;;;;;;;6.65;6.05;;;;;;;17.44;100.00;100425.58;2862365;80;21074;-89
2022/08/02 03:57:06;;;;;;;8.50;6.62;;;;;;;17.59;100.00;100431.63;2884888;80;21047;-91
2022/08/02 04:01:08;;;;;;;10.25;6.25;;;;;;;17.56;100.00;100437.69;2864576;81;21055;-89
2022/08/02 04:05:09;;;;;;;8.38;5.87;;;;;;;17.58;100.00;100438.84;2865751;82;21031;-89
2022/08/02 04:09:10;;;;;;;6.65;5.70;;;;;;;17.55;100.00;100443.22;2818481;82;21013;-91
2022/08/02 04:13:12;;;;;;;6.22;5.62;;;;;;;17.61;100.00;100447.09;2799513;83;21735;-90
2022/08/02 04:17:14;;;;;;;6.20;4.87;;;;;;;17.59;100.00;100447.77;2795267;82;21023;-88
2022/08/02 04:21:18;;;;;;;6.60;5.97;;;;;;;17.68;100.00;100457.51;2902739;80;21019;-91
2022/08/02 04:25:21;;;;;;;7.25;6.55;;;;;;;17.98;100.00;100456.48;2892974;80;21193;-90
2022/08/02 04:29:24;;;;;;;5.75;4.72;;;;;;;18.65;100.00;100465.27;2902780;79;21010;-89
2022/08/02 04:33:26;;;;;;;10.15;6.78;;;;;;;19.52;100.00;100471.02;2883103;80;21035;-90
2022/08/02 04:37:27;;;;;;;5.65;5.15;;;;;;;20.52;99.90;100467.39;2868634;80;21070;-88
2022/08/02 04:41:43;;;;;;;7.05;5.58;;;;;;;21.15;93.21;100466.94;2831462;82;21047;-89
2022/08/02 04:45:47;;;;;;;7.25;6.30;;;;;;;21.23;90.91;100468.69;2835761;82;21066;-89
2022/08/02 04:49:49;;;;;;;7.67;6.00;;;;;;;21.70;91.27;100471.88;2849978;80;21047;-90
2022/08/02 04:53:50;;;;;;;7.85;7.10;;;;;;;21.90;89.29;100467.14;2901575;80;21042;-87
2022/08/02 05:02:07;;;;;;;5.58;4.97;;;;;;;22.12;86.45;100467.94;2836508;82;21086;-88
2022/08/02 05:06:08;;;;;;;5.75;4.47;;;;;;;22.35;87.16;100473.60;2875627;80;21110;-90
2022/08/02 05:10:09;;;;;;;6.62;5.70;;;;;;;22.34;86.45;100479.52;2879314;80;21387;-90
2022/08/02 05:14:11;;;;;;;6.90;4.62;;;;;;;22.44;85.40;100485.12;2879797;80;21165;-90
2022/08/02 05:18:12;;;;;;;4.90;4.50;;;;;;;22.78;85.21;100486.13;2884784;82;21105;-90
2022/08/02 05:22:13;;;;;;;6.22;5.72;;;;;;;22.52;85.43;100490.39;2894146;80;21109;-90
2022/08/02 05:26:15;;;;;;;5.17;4.67;;;;;;;22.40;84.96;100496.36;2807008;82;21166;-89
2022/08/02 05:30:16;;;;;;;5.85;4.65;;;;;;;22.11;87.24;100497.41;2790208;83;22266;-89
2022/08/02 05:34:17;;;;;;;6.67;6.08;;;;;;;22.19;87.32;100505.88;2872153;81;21039;-89
2022/08/02 05:38:18;;;;;;;5.70;5.10;;;;;;;22.65;86.08;100503.17;2809304;83;21004;-89
2022/08/02 05:42:19;;;;;;;5.53;5.03;;;;;;;22.96;83.90;100508.11;2862254;81;21032;-90
2022/08/02 05:46:21;;;;;;;5.17;4.53;;;;;;;23.07;81.98;100509.41;2895732;81;21006;-91
2022/08/02 05:50:22;;;;;;;4.30;3.45;;;;;;;23.35;84.48;100509.84;2813119;82;21432;-89
2022/08/02 05:54:37;;;;;;;5.78;4.83;;;;;;;23.59;80.79;100519.80;2795909;83;21044;-89
2022/08/02 05:59:10;;;;;;;5.40;4.90;;;;;;;23.72;81.54;100518.16;2796884;83;21469;-87
2022/08/02 06:03:35;;;;;;;4.37;3.87;;;;;;;23.55;80.92;100522.63;2900159;80;21046;-88
2022/08/02 06:07:40;;;;;;;5.40;4.95;;;;;;;23.25;81.92;100523.81;2903584;79;20964;-90
2022/08/02 06:11:46;;;;;;;4.62;4.22;;;;;;;23.58;82.36;100524.07;2819947;82;20995;-90
2022/08/02 06:15:51;;;;;;;6.42;5.47;;;;;;;23.87;79.66;100527.45;2887279;81;21114;-90
2022/08/02 06:19:59;;;;;;;5.87;4.95;;;;;;;24.24;78.00;100520.56;2877159;80;21075;-90
2022/08/02 06:24:01;;;;;;;5.05;3.65;;;;;;;24.49;77.89;100521.28;2882730;80;20975;-87
2022/08/02 06:28:05;;;;;;;14.23;4.45;;;;;;;24.60;76.44;100521.66;2859966;81;21105;-89
2022/08/02 06:32:08;;;;;;;6.92;5.22;;;;;;;24.82;76.09;100523.62;2816146;83;21102;-87
2022/08/02 06:36:16;;;;;;;5.15;4.65;;;;;;;24.89;75.86;100521.69;2794878;83;21047;-89
2022/08/02 06:40:39;;;;;;;4.97;4.03;;;;;;;25.19;74.33;100524.39;2827729;82;21103;-89
2022/08/02 06:44:40;;;;;;;4.35;3.95;;;;;;;25.55;73.79;100533.00;2786944;83;21090;-89
2022/08/02 06:48:41;;;;;;;4.50;3.77;;;;;;;25.86;72.26;100532.17;2807878;83;21078;-90
2022/08/02 06:52:43;;;;;;;6.25;4.47;;;;;;;25.94;72.29;100523.70;2835907;82;21059;-88
2022/08/02 06:56:45;;;;;;;4.60;4.15;;;;;;;26.08;72.05;100528.52;2722183;83;21026;-88
2022/08/02 07:00:47;;;;;;;5.85;4.45;;;;;;;26.08;70.72;100524.97;2760397;85;21067;-87
2022/08/02 07:04:49;;;;;;;4.37;3.98;;;;;;;26.55;70.69;100516.88;2782611;83;21051;-87
2022/08/02 07:08:50;;;;;;;10.30;4.28;;;;;;;26.93;67.95;100521.28;2773950;84;21093;-89
2022/08/02 07:12:52;;;;;;;3.12;2.83;;;;;;;27.33;66.84;100519.38;2781905;82;21068;-89
2022/08/02 07:16:53;;;;;;;6.00;3.17;;;;;;;27.45;66.55;100520.78;2776794;83;21043;-88
2022/08/02 07:20:54;;;;;;;3.02;2.75;;;;;;;27.64;65.67;100515.28;2851367;80;21025;-90
2022/08/02 07:24:58;;;;;;;4.30;2.42;;;;;;;27.67;64.44;100513.45;2884537;80;21015;-88
2022/08/02 07:29:00;;;;;;;4.42;2.42;;;;;;;27.81;61.77;100518.19;2869679;82;21024;-89
2022/08/02 07:33:02;;;;;;;2.95;1.20;;;;;;;28.17;59.30;100519.60;2889323;80;21058;-87
2022/08/02 07:37:03;;;;;;;1.47;1.07;;;;;;;28.21;59.03;100513.95;2857405;80;20995;-89
2022/08/02 07:41:04;;;;;;;1.62;1.52;;;;;;;28.02;59.77;100503.09;2844594;82;21098;-88
2022/08/02 07:45:07;;;;;;;11.28;2.12;;;;;;;28.03;61.02;100506.13;2888399;80;21526;-89
2022/08/02 07:49:08;;;;;;;2.25;2.05;;;;;;;28.27;59.17;100503.41;2883545;80;21046;-90
2022/08/02 07:53:09;;;;;;;4.97;1.62;;;;;;;28.28;59.28;100494.69;2814937;80;21074;-89
2022/08/02 07:57:11;;;;;;;2.00;1.37;;;;;;;28.26;59.18;100503.67;2879883;80;21010;-87
2022/08/02 08:01:13;;;;;;;1.70;1.60;;;;;;;28.21;57.85;100503.86;2874581;80;21015;-90
2022/08/02 08:05:14;;;;;;;1.82;1.35;;;;;;;28.39;57.51;100507.50;2887324;79;21042;-83
2022/08/02 08:09:18;;;;;;;5.90;1.77;;;;;;;28.26;57.00;100507.77;2835612;82;21067;-90
2022/08/02 08:17:57;;;;;;;1.87;1.60;;;;;;;28.11;57.67;100519.16;2940893;79;21051;-88
2022/08/02 08:21:59;;;;;;;8.95;2.22;;;;;;;27.78;58.08;100521.36;2947250;77;21038;-83
2022/08/02 08:26:12;;;;;;;1.98;1.30;;;;;;;27.77;59.14;100519.70;2999094;77;21078;-87
2022/08/02 08:30:13;;;;;;;2.85;1.37;;;;;;;27.46;58.49;100519.72;2879239;77;21113;-91
2022/08/02 08:34:15;;;;;;;2.65;1.40;;;;;;;27.34;61.56;100518.87;2833366;81;21047;-90
2022/08/02 08:38:16;;;;;;;2.95;1.40;;;;;;;27.12;62.65;100523.47;2840150;81;21081;-91
2022/08/02 08:42:18;;;;;;;1.67;1.50;;;;;;;26.56;62.93;100525.36;2829567;82;21023;-92
2022/08/02 08:46:33;;;;;;;6.03;2.75;;;;;;;26.37;64.28;100524.83;2785794;83;21093;-91
2022/08/02 08:50:35;;;;;;;;;;;;;;;26.77;65.05;100529.54;2808728;81;21018;-89
2022/08/02 08:54:41;;;;;;;3.33;1.67;;;;;;;27.26;63.24;100524.64;2818129;81;20184;-85
2022/08/02 08:58:46;;;;;;;2.08;1.02;;;;;;;27.44;59.17;100520.48;2805238;82;21114;-90
2022/08/02 09:02:48;;;;;;;1.22;0.65;;;;;;;27.54;57.97;100528.70;2820981;82;21055;-88
2022/08/02 09:06:50;;;;;;;1.45;1.35;;;;;;;27.87;57.54;100520.48;2845296;81;21065;-90
2022/08/02 09:10:51;;;;;;;1.90;1.10;;;;;;;27.96;56.55;100523.19;2777762;82;21023;-90
2022/08/02 09:14:53;;;;;;;4.42;1.98;;;;;;;28.12;55.39;100525.74;2827640;82;21038;-90
2022/08/02 09:18:55;;;;;;;1.98;1.47;;;;;;;27.94;56.38;100530.80;2822784;81;21097;-90
2022/08/02 09:23:09;;;;;;;1.30;1.20;;;;;;;27.79;55.88;100536.17;2839420;81;21063;-89
2022/08/02 09:27:17;;;;;;;1.87;1.05;;;;;;;28.17;55.90;100531.91;2813848;81;21014;-89
2022/08/02 09:31:22;;;;;;;3.12;1.50;;;;;;;28.32;54.54;100525.43;2833266;81;21099;-89
2022/08/02 09:35:41;;;;;;;2.83;1.00;;;;;;;28.41;54.05;100527.79;2830914;81;21097;-90
2022/08/02 09:39:46;;;;;;;1.75;1.45;;;;;;;28.43;53.35;100526.48;2809465;82;21011;-87
2022/08/02 09:43:48;;;;;;;1.75;1.47;;;;;;;28.68;53.62;100516.31;2836499;82;21136;-90
2022/08/02 09:47:49;;;;;;;1.42;1.32;;;;;;;28.56;54.36;100522.66;2824830;82;21076;-89
2022/08/02 09:51:53;;;;;;;2.02;1.92;;;;;;;28.35;54.85;100523.58;2800436;82;21030;-91
2022/08/02 09:55:55;;;;;;;1.92;1.55;;;;;;;28.74;52.66;100507.97;2840704;81;21065;-86
2022/08/02 09:59:59;;;;;;;2.75;1.80;;;;;;;28.74;51.12;100503.05;2825568;81;21600;-90
2022/08/02 10:04:08;;;;;;;2.08;1.25;;;;;;;28.74;51.12;100503.05;2845467;81;21066;-89
2022/08/02 10:08:10;;;;;;;1.87;1.67;;;;;;;28.75;51.20;100508.82;2837330;81;21101;-91
2022/08/02 10:12:12;;;;;;;4.25;1.62;;;;;;;28.72;53.40;100499.73;2835285;82;21026;-90
2022/08/02 10:16:18;;;;;;;2.62;1.72;;;;;;;28.68;52.66;100494.42;2835499;82;21105;-90
2022/08/02 10:20:40;;;;;;;2.12;1.67;;;;;;;28.72;52.58;100486.86;2813002;82;21050;-91
2022/08/02 10:24:42;;;;;;;2.95;1.42;;;;;;;28.81;52.26;100490.08;2778622;83;21129;-84
2022/08/02 10:28:48;;;;;;;2.55;2.02;;;;;;;28.42;52.80;100451.49;2772846;83;21051;-90
2022/08/02 10:32:52;;;;;;;1.85;1.55;;;;;;;28.59;52.14;100460.61;2732720;83;21073;-88
2022/08/02 10:36:55;;;;;;;1.70;1.60;;;;;;;28.75;50.43;100477.35;2808471;82;21102;-87
2022/08/02 10:40:56;;;;;;;1.65;1.42;;;;;;;28.78;51.33;100479.05;2840898;81;21616;-87
2022/08/02 10:45:14;;;;;;;2.05;1.45;;;;;;;28.58;51.77;100472.62;2760359;84;21095;-88
2022/08/02 10:49:21;;;;;;;1.47;1.37;;;;;;;28.22;52.31;100472.70;2758857;83;21094;-89
2022/08/02 10:53:31;;;;;;;1.42;1.32;;;;;;;28.35;51.46;100463.92;2835457;81;21000;-89
2022/08/02 10:57:36;;;;;;;2.95;1.42;;;;;;;28.38;51.51;100460.70;2819424;82;21079;-88
2022/08/02 11:01:44;;;;;;;4.08;1.77;;;;;;;28.38;51.51;100460.70;2822202;82;20980;-89
2022/08/02 11:05:51;;;;;;;2.60;1.65;;;;;;;28.38;52.84;100441.56;2818536;82;21036;-88
2022/08/02 11:09:52;;;;;;;2.80;1.40;;;;;;;28.75;51.62;100466.41;2814702;83;21082;-90
2022/08/02 11:14:03;;;;;;;1.42;1.00;;;;;;;28.87;51.68;100458.17;2824235;82;21054;-91
2022/08/02 11:18:04;;;;;;;1.67;1.47;;;;;;;28.82;50.58;100458.90;2827999;81;21014;-90
2022/08/02 11:22:18;;;;;;;5.95;1.57;;;;;;;28.57;49.18;100454.55;2833217;82;21027;-90
2022/08/02 11:26:34;;;;;;;1.50;1.40;;;;;;;28.55;49.34;100447.13;2834733;82;21629;-87
2022/08/02 11:30:37;;;;;;;1.67;1.42;;;;;;;28.73;49.59;100443.92;2838471;80;21521;-90
2022/08/02 11:34:47;;;;;;;2.20;1.57;;;;;;;29.07;49.25;100450.34;2839468;81;21090;-90
2022/08/02 11:38:48;;;;;;;1.75;1.35;;;;;;;29.14;49.14;100425.55;2823286;82;21160;-89
2022/08/02 11:42:50;;;;;;;2.05;1.80;;;;;;;29.47;48.63;100445.84;2778214;82;20952;-90
2022/08/02 11:47:01;;;;;;;1.45;0.98;;;;;;;29.36;49.31;100457.70;2845135;81;21229;-89
2022/08/02 11:51:15;;;;;;;2.42;1.80;;;;;;;29.37;47.63;100453.87;2803821;82;21090;-89
2022/08/02 11:55:17;;;;;;;1.80;1.37;;;;;;;29.43;48.84;100443.32;2823045;82;21105;-91
2022/08/02 11:59:18;;;;;;;4.60;2.20;;;;;;;29.52;47.89;100444.30;2847999;81;21039;-89
2022/08/02 12:03:20;;;;;;;2.72;1.62;;;;;;;29.70;48.12;100446.78;2812920;81;20984;-90
2022/08/02 12:07:35;;;;;;;1.30;1.20;;;;;;;29.89;47.04;100443.78;2858684;80;21102;-87
2022/08/02 12:11:36;;;;;;;1.80;1.70;;;;;;;30.14;51.59;100442.50;2836560;82;21027;-91
2022/08/02 12:15:44;;;;;;;2.35;2.15;;;;;;;30.29;49.23;100440.50;2856280;81;21610;-90
2022/08/02 12:19:47;;;;;;;1.87;1.45;;;;;;;30.34;47.51;100435.07;2849975;81;21132;-89
2022/08/02 12:23:49;;;;;;;1.72;1.30;;;;;;;30.07;47.36;100441.31;2861893;81;21128;-90
2022/08/02 12:27:50;;;;;;;1.62;1.52;;;;;;;29.76;48.16;100440.29;2823163;82;21081;-91
2022/08/02 12:31:51;;;;;;;1.85;1.35;;;;;;;29.60;47.06;100441.13;2830414;81;21097;-90
2022/08/02 12:35:53;;;;;;;2.65;2.05;;;;;;;29.42;47.45;100443.03;2811842;82;21086;-91
2022/08/02 12:39:54;;;;;;;5.08;1.95;;;;;;;29.25;47.06;100439.41;2841694;81;21078;-90
2022/08/02 12:43:56;;;;;;;7.03;1.72;;;;;;;29.18;48.25;100432.72;2838358;80;21041;-91
2022/08/02 12:47:59;;;;;;;1.92;1.82;;;;;;;29.03;48.34;100429.17;2841849;81;21022;-90
2022/08/02 12:52:01;;;;;;;2.10;1.25;;;;;;;28.70;48.58;100433.47;2821243;82;21374;-90
2022/08/02 12:56:03;;;;;;;2.55;1.30;;;;;;;28.79;48.91;100430.63;2840524;82;21106;-89
2022/08/02 13:00:06;;;;;;;2.72;1.52;;;;;;;28.84;49.15;100427.19;2843948;80;21052;-90
2022/08/02 13:04:08;;;;;;;2.08;1.87;;;;;;;29.02;49.35;100423.41;2814809;82;21527;-87
2022/08/02 13:08:09;;;;;;;2.35;1.85;;;;;;;29.19;48.45;100422.08;2816870;82;21091;-90
2022/08/02 13:12:11;;;;;;;2.33;2.12;;;;;;;29.32;46.75;100412.70;2767544;82;21030;-86
2022/08/02 13:16:13;;;;;;;1.85;1.75;;;;;;;29.42;46.56;100411.52;2774463;83;21627;-90
2022/08/02 13:20:15;;;;;;;4.65;1.95;;;;;;;29.54;46.33;100407.33;2790948;81;21043;-86
2022/08/02 13:24:17;;;;;;;7.20;2.52;;;;;;;29.52;46.52;100404.56;2795979;82;21050;-92
2022/08/02 13:28:20;;;;;;;1.60;1.50;;;;;;;29.63;46.88;100398.14;2812717;82;21141;-92
2022/08/02 13:32:23;;;;;;;2.25;1.77;;;;;;;29.60;47.21;100391.27;2832101;82;20994;-89
2022/08/02 13:36:25;;;;;;;2.90;1.90;;;;;;;29.73;48.97;100383.23;2810095;81;21128;-89
2022/08/02 13:40:26;;;;;;;2.47;1.82;;;;;;;29.84;47.39;100373.77;2857094;81;21083;-90
2022/08/02 13:44:28;;;;;;;4.15;2.50;;;;;;;29.88;47.58;100373.58;2841645;82;21440;-92
2022/08/02 13:48:29;;;;;;;2.58;2.33;;;;;;;30.00;46.71;100374.83;2814687;82;21042;-92
2022/08/02 13:52:31;;;;;;;2.47;1.80;;;;;;;30.17;46.59;100363.82;2844641;81;21004;-89
2022/08/02 13:56:33;;;;;;;2.72;2.02;;;;;;;30.35;46.23;100360.75;2801076;82;21073;-90
2022/08/02 14:00:34;;;;;;;1.35;1.20;;;;;;;30.33;45.09;100358.81;2830544;82;21053;-92
2022/08/02 14:04:37;;;;;;;3.12;1.47;;;;;;;30.46;45.67;100354.84;2820971;82;20997;-92
2022/08/02 14:08:39;;;;;;;1.75;1.65;;;;;;;30.53;46.08;100351.05;2814839;80;21073;-90
2022/08/02 14:12:41;;;;;;;3.37;1.75;;;;;;;30.37;46.97;100358.30;2807405;82;21068;-90
2022/08/02 14:16:44;;;;;;;1.72;1.37;;;;;;;30.30;46.38;100353.00;2812968;82;21056;-90
2022/08/02 14:20:45;;;;;;;1.40;1.30;;;;;;;30.40;46.14;100350.92;2823909;82;21053;-90
2022/08/02 14:24:46;;;;;;;3.37;1.62;;;;;;;30.53;46.37;100349.16;2777972;82;21032;-90
2022/08/02 14:28:51;;;;;;;5.10;2.10;;;;;;;30.51;45.85;100351.33;2797657;81;21043;-89
2022/08/02 14:32:54;;;;;;;6.80;1.92;;;;;;;30.17;46.75;100354.22;2787221;82;21158;-90
2022/08/02 14:36:56;;;;;;;1.52;1.35;;;;;;;30.04;47.56;100347.21;2735164;84;21106;-93
2022/08/02 14:40:58;;;;;;;2.22;1.85;;;;;;;30.21;47.52;100345.23;2715003;84;21102;-93
2022/08/02 14:45:00;;;;;;;2.65;1.20;;;;;;;30.38;49.90;100335.26;2832860;82;21064;-93
2022/08/02 14:53:16;;;;;;;2.00;1.67;;;;;;;30.68;46.02;100329.84;2799920;82;68717;-90
2022/08/02 14:57:18;;;;;;;1.67;1.57;;;;;;;30.49;45.90;100326.06;2817798;81;21071;-88
2022/08/02 15:01:20;;;;;;;5.10;2.27;;;;;;;30.48;45.98;100319.73;2856816;81;21018;-87
2022/08/02 15:05:21;;;;;;;2.35;2.15;;;;;;;30.65;46.56;100325.70;2878725;80;21050;-89
2022/08/02 15:09:23;;;;;;;1.80;1.65;;;;;;;30.52;44.78;100327.44;2868112;80;20994;-89
2022/08/02 15:13:25;;;;;;;1.05;0.95;;;;;;;30.50;46.80;100318.92;2875561;80;21074;-86
2022/08/02 15:17:27;;;;;;;2.60;1.57;;;;;;;30.63;46.85;100314.16;2841643;81;30977;-89
2022/08/02 15:21:29;;;;;;;2.25;2.00;;;;;;;30.75;46.63;100315.36;2817422;82;21046;-87
2022/08/02 15:25:30;;;;;;;10.90;3.05;;;;;;;30.75;45.18;100309.87;2854470;80;20991;-91
2022/08/02 15:29:32;;;;;;;2.58;1.70;;;;;;;30.84;45.90;100316.52;2832405;82;21034;-86
2022/08/02 15:33:33;;;;;;;3.25;1.50;;;;;;;30.94;43.67;100309.48;2827037;81;21062;-90
2022/08/02 15:37:35;;;;;;;2.08;1.87;;;;;;;31.00;43.71;100312.01;2835661;81;21048;-85
2022/08/02 15:41:37;;;;;;;1.95;1.50;;;;;;;31.06;43.40;100308.77;2841503;82;21042;-88
2022/08/02 15:45:39;;;;;;;5.28;1.98;;;;;;;31.15;45.12;100315.41;2844482;82;21094;-90
2022/08/02 15:49:41;;;;;;;2.22;1.37;;;;;;;31.18;44.96;100312.13;2811415;82;21043;-90
2022/08/02 15:53:42;;;;;;;2.27;2.05;;;;;;;31.09;44.44;100308.23;2749466;84;21062;-92
2022/08/02 15:57:44;;;;;;;3.17;2.15;;;;;;;30.96;44.19;100307.30;2744793;84;21075;-92
2022/08/02 16:01:49;;;;;;;1.42;1.32;;;;;;;30.71;44.43;100305.99;2766175;80;21038;-92
2022/08/02 16:05:49;;;;;;;5.58;2.15;;;;;;;30.64;44.41;100302.89;2808856;81;21015;-86
2022/08/02 16:09:50;;;;;;;2.72;1.62;;;;;;;30.60;43.21;100303.67;2871706;80;21071;-90
2022/08/02 16:13:52;;;;;;;2.45;1.15;;;;;;;30.60;43.36;100301.73;2842722;80;21083;-92
2022/08/02 16:17:54;;;;;;;2.58;1.90;;;;;;;30.52;43.78;100300.84;2852973;82;21006;-92
2022/08/02 16:21:55;;;;;;;1.65;1.55;;;;;;;30.54;43.36;100298.66;2879037;80;21012;-90
2022/08/02 16:25:56;;;;;;;2.87;1.98;;;;;;;30.53;43.45;100294.27;2872311;81;21032;-91
2022/08/02 16:29:58;;;;;;;1.67;1.40;;;;;;;30.53;43.75;100289.31;2859184;81;21020;-91
2022/08/02 16:33:59;;;;;;;1.35;1.25;;;;;;;30.46;44.27;100296.38;2859789;80;20977;-91
2022/08/02 16:38:01;;;;;;;1.55;1.45;;;;;;;30.22;44.04;100293.94;2836053;82;21016;-90
2022/08/02 16:42:02;;;;;;;9.03;1.72;;;;;;;30.14;45.15;100289.73;2865892;80;20996;-85
2022/08/02 16:46:04;;;;;;;1.47;1.32;;;;;;;30.02;46.25;100287.13;2868597;81;21002;-86
2022/08/02 16:50:06;;;;;;;1.57;1.47;;;;;;;29.91;45.41;100288.08;2852503;81;21047;-92
2022/08/02 16:54:08;;;;;;;2.80;1.70;;;;;;;29.78;44.92;100293.41;2876645;80;21137;-89
2022/08/02 16:58:10;;;;;;;1.35;1.25;;;;;;;29.67;44.55;100293.78;2898455;80;21020;-94
2022/08/02 17:02:11;;;;;;;2.45;2.08;;;;;;;29.58;45.17;100293.95;2855200;79;21004;-91
2022/08/02 17:06:14;;;;;;;1.57;1.47;;;;;;;29.49;44.73;100290.81;2793711;82;21026;-89
2022/08/02 17:10:15;;;;;;;2.22;2.02;;;;;;;29.41;44.95;100300.81;2853816;81;21027;-93
2022/08/02 17:14:17;;;;;;;6.08;2.10;;;;;;;29.36;45.96;100293.34;2850886;81;21026;-90
2022/08/02 17:18:18;;;;;;;1.47;1.37;;;;;;;29.29;45.45;100298.17;2850902;80;20996;-88
2022/08/02 17:22:20;;;;;;;5.87;1.70;;;;;;;29.20;46.19;100297.20;2846485;80;21542;-88
2022/08/02 17:26:25;;;;;;;1.35;1.25;;;;;;;29.15;45.68;100291.66;2801776;82;21023;-91
2022/08/02 17:30:27;;;;;;;1.60;1.20;;;;;;;28.98;46.79;100297.67;2843708;82;21046;-91
2022/08/02 17:34:29;;;;;;;1.92;1.30;;;;;;;28.84;46.82;100293.89;2865613;81;21026;-93
2022/08/02 17:38:31;;;;;;;2.65;1.92;;;;;;;28.70;47.95;100299.38;2849065;81;21075;-91
2022/08/02 17:42:33;;;;;;;3.35;2.10;;;;;;;28.55;47.92;100298.55;2822818;81;21058;-86
2022/08/02 17:46:35;;;;;;;2.05;1.50;;;;;;;28.39;47.76;100301.55;2842960;81;21036;-87
2022/08/02 17:50:36;;;;;;;2.65;2.45;;;;;;;28.25;48.71;100307.30;2831445;80;21020;-87
2022/08/02 17:54:38;;;;;;;3.05;2.05;;;;;;;28.08;49.01;100299.83;2851196;80;21047;-90
2022/08/02 17:58:40;;;;;;;2.12;1.77;;;;;;;27.95;49.13;100300.12;2875878;79;21038;-83
2022/08/02 18:02:41;;;;;;;1.72;1.40;;;;;;;27.83;49.38;100300.67;2853532;80;21534;-90
2022/08/02 18:06:49;;;;;;;2.37;2.15;;;;;;;27.39;51.07;100288.22;2823793;82;21061;-86
2022/08/02 18:10:54;;;;;;;2.75;2.47;;;;;;;27.39;51.07;100288.22;2847083;80;21098;-91
2022/08/02 18:14:56;;;;;;;4.00;1.67;;;;;;;27.36;51.92;100310.55;2863431;80;21042;-90
2022/08/02 18:19:00;;;;;;;6.22;3.12;;;;;;;27.20;51.73;100313.44;2862376;81;21110;-90
2022/08/02 18:23:01;;;;;;;3.70;2.40;;;;;;;27.03;52.23;100316.88;2845379;80;21052;-87
2022/08/02 18:27:03;;;;;;;2.72;2.40;;;;;;;26.89;52.19;100312.14;2849891;80;21083;-88
2022/08/02 18:31:11;;;;;;;2.47;2.27;;;;;;;26.74;52.83;100324.02;2867081;80;21078;-87
2022/08/02 18:35:10;;;;;;;3.45;3.00;;;;;;;26.48;54.36;100326.04;2867981;80;21165;-92
2022/08/02 18:39:12;;;;;;;5.28;2.20;;;;;;;26.28;54.87;100327.14;2830189;82;21027;-91
2022/08/02 18:43:14;;;;;;;3.67;2.65;;;;;;;26.07;55.69;100318.89;2838324;82;21031;-91
2022/08/02 18:47:15;;;;;;;2.65;2.45;;;;;;;25.85;56.42;100319.88;2763357;83;21034;-83
2022/08/02 18:51:20;;;;;;;3.92;3.55;;;;;;;25.61;57.52;100316.98;2865676;80;21074;-93
2022/08/02 18:55:21;;;;;;;4.05;3.10;;;;;;;25.24;58.96;100331.31;2834588;81;21448;-93
2022/08/02 18:59:22;;;;;;;5.37;3.15;;;;;;;25.05;59.07;100339.41;2861469;81;21596;-91
2022/08/02 19:03:24;;;;;;;3.85;2.50;;;;;;;24.91;60.00;100350.92;2827938;78;21147;-88